Historyczne dane pomiarowe

Dodano dane terminowe – wersja testowa.

Dane z okresu 1951-2019

Wersja bazy: 1.34 [2019-03-16, lista zmian], aktualizacja planowana na 2019-04-15

Dane meteo z obszaru Polski uzyskane na podstawie danych udostępnionych przez Instytut Meteorologii i Gospodarki Wodnej – Państwowy Instytut Badawczy.

 

Wybierz Datę:    

       

TemperaturaWilgotnośćWiatrCiśnienieOpadyŚniegCzas trwania zjawisk
 Stacja t tx tn tng RH VA  wxwx mslp ppp RRR   cm mm wxwxwxwxwxwxwx
1987-08-14 13.4 20.0 7.5 4.9 87.0- 5.7 1.3---- 4.9------------
1987-08-13 13.5 20.0 7.5 4.5 79.8- 4.7 1.0---- 0.0------------
1987-08-12 13.4 18.9 6.6 2.9 76.3- 3.3 1.3---- 0.0------------
1987-08-11 13.5 17.4 10.5 6.2 74.5- 4.0 3.0---- 0.0------------
1987-08-10 14.5 19.4 12.0 9.2 83.8- 7.3 3.0---- 3.3------------
1987-08-09 16.0 24.5 7.2 4.4 78.3- 4.0 1.3---- 3.8------------
1987-08-08 14.8 21.4 7.5 3.2 73.8- 3.7 3.0---- 0.4------------
1987-08-07 10.5 15.7 3.7 0.3 85.3- 5.0 0.3---- 4.1------------
1987-08-06 12.4 16.4 8.7 4.7 74.8- 2.7 4.3---- 0.0------------
1987-08-05 11.8 18.1 5.9 2.5 81.3- 5.3 2.0---- 0.8------------
1987-08-04 15.8 18.2 14.2 11.3 79.5- 6.7 1.7---- 0.9------------
1987-08-03 15.8 21.0 11.3 7.0 73.8- 4.7 2.7---- 5.5------------
1987-08-02 15.0 19.5 12.0 9.9 79.3- 7.0 2.0---- 2.0------------
1987-08-01 15.9 19.5 13.0 9.3 82.0- 7.3 1.7---- 5.6------------
1987-07-31 16.0 21.3 13.5 5.4 83.0- 7.0 2.0---- 0.7------------
1987-07-30 17.1 25.4 7.3 4.4 76.3- 2.7 0.7---- 4.8------------
1987-07-29 14.9 19.0 9.0 5.4 74.8- 6.0 2.0---- 0.0------------
1987-07-28 14.1 16.0 12.8 12.3 79.5- 7.7 4.0---- 1.7------------
1987-07-27 13.5 17.5 9.3 6.7 67.5- 7.7 4.7---- 2.3------------
1987-07-26 13.2 16.4 11.4 11.2 80.0- 6.0 1.0---- 3.1------------
1987-07-25 18.0 24.4 14.1 11.4 75.3- 4.0 2.7---- 0.1------------
1987-07-24 20.2 25.0 14.7 10.8 75.8- 3.7 3.3---- 0.6------------
1987-07-23 19.1 25.9 12.1 8.8 82.3- 4.7 1.7---- 0.0------------
1987-07-22 18.8 25.0 12.6 9.2 75.0- 1.0 1.7---- 0.0------------
1987-07-21 16.8 22.8 12.6 9.8 89.0- 7.0 2.0---- 0.6------------
1987-07-20 18.7 23.5 15.6 15.4 81.8- 4.3 1.7---- 0.0------------
1987-07-19 18.5 23.0 17.4 16.3 84.0- 8.0 2.0---- 12.9------------
1987-07-18 21.8 25.8 15.2 12.1 77.3- 4.0 2.3---- 3.0------------
1987-07-17 23.3 30.0 17.8 14.6 71.0- 4.7 2.3---- 0.0------------
1987-07-16 20.0 27.1 12.2 9.3 82.3- 2.3 1.0---- 3.7------------
1987-07-15 17.5 24.3 8.6 5.0 75.3- 0.7 2.0---- 0.0------------
1987-07-14 16.3 20.9 9.1 5.4 69.5- 0.0 0.3---- 0.0------------
1987-07-13 17.9 21.7 12.7 9.1 76.8- 3.7 2.0---- 0.0------------
1987-07-12 20.7 28.4 15.5 11.1 73.0- 5.0 2.0---- 10.7------------
1987-07-11 18.0 25.3 8.1 4.9 71.0- 3.7 2.0---- 0.0------------
1987-07-10 15.0 19.8 8.3 4.5 71.0- 2.3 2.0---- 0.0------------
1987-07-09 15.6 23.0 14.5 15.4 91.8- 7.7 1.0---- 2.6------------
1987-07-08 20.7 27.5 9.1 9.1 72.3- 5.0 1.3---- 15.0------------
1987-07-07 19.5 27.4 9.1 5.8 65.8- 0.0 1.3---- 0.0------------
1987-07-06 17.6 23.3 8.9 5.6 71.5- 0.0 1.0---- 0.0------------
1987-07-05 16.8 20.3 12.0 7.9 66.5- 1.7 2.7---- 0.0------------
1987-07-04 18.0 22.0 12.0 8.3 75.8- 5.0 2.3---- 0.0------------
1987-07-03 18.0 22.3 12.0 9.2 81.5- 3.0 1.0---- 0.0------------
1987-07-02 17.8 21.8 14.8 14.8 86.0- 7.3 1.3---- 6.2------------
1987-07-01 23.5 32.0 15.6 12.8 74.0- 3.0 2.3---- 23.4------------
1987-06-30 23.5 30.7 14.6 11.8 71.0- 0.0 1.3---- 0.0------------
1987-06-29 21.9 26.3 17.0 14.1 72.8- 0.3 1.7---- 0.0------------
1987-06-28 18.5 25.0 10.1 7.4 78.0- 5.7 1.7---- 0.0------------
1987-06-27 16.5 19.9 13.7 11.3 88.8- 5.7 1.7---- 5.5------------
1987-06-26 16.0 24.1 7.3 4.8 78.5- 4.7 3.0---- 14.4------------
1987-06-25 13.7 17.6 12.5 10.2 84.0- 6.7 2.0---- 2.2------------
1987-06-24 16.1 21.1 11.9 7.8 75.5- 5.0 1.7---- 6.9------------
1987-06-23 15.3 20.7 9.6 7.4 77.8- 4.3 2.0---- 0.0------------
1987-06-22 13.5 16.6 11.9 11.6 88.5- 8.0 3.3---- 1.7------------
1987-06-21 16.5 22.0 10.5 7.4 78.0- 6.7 4.0---- 2.1------------
1987-06-20 15.5 21.6 10.0 6.9 76.5- 7.0 1.7---- 0.1------------
1987-06-19 12.9 18.2 8.0 4.4 75.0- 6.3 2.3---- 0.2------------
1987-06-18 10.6 14.8 8.9 4.9 78.0- 8.0 1.7---- 10.7------------
1987-06-17 12.3 17.0 9.4 6.3 70.0- 6.7 2.3---- 0.0------------
1987-06-16 12.8 24.8 9.9 9.5 78.5- 8.0 5.7---- 2.8------------
505.3 ms

 

Źródłem pochodzenia danych jest Instytut Meteorologii i Gospodarki Wodnej – Państwowy Instytut Badawczy. Dane Instytutu Meteorologii i Gospodarki Wodnej – Państwowego Instytutu Badawczego zostały przetworzone.

Dane źródłowe można odnaleźć na stronie https://dane.imgw.pl